Time;durP1;ratioP1;P1;durP2;ratioP2;P2;SDS_P1;SDS_P2;PMS_P1;PMS_P2;Temp;Humidity;BMP_temperature;BMP_pressure;BME280_temperature;BME280_humidity;BME280_pressure;Samples;Min_cycle;Max_cycle;Signal;HPM_P1;HPM_P2
2021/11/21 00:00:44;;;;;;;16.75;11.50;;;;;;;;;;4972420;28;20097;-66
2021/11/21 00:03:11;;;;;;;15.88;11.00;;;;;;;;;;4972071;28;20074;-66
2021/11/21 00:05:41;;;;;;;16.08;11.27;;;;;;;;;;4972612;28;20074;-66
2021/11/21 00:08:09;;;;;;;17.25;12.07;;;;;;;;;;4972442;28;20047;-66
2021/11/21 00:10:35;;;;;;;16.23;11.65;;;;;;;;;;4972561;28;20105;-66
2021/11/21 00:13:02;;;;;;;18.05;11.85;;;;;;;;;;4971858;28;20088;-66
2021/11/21 00:15:29;;;;;;;17.75;11.63;;;;;;;;;;4972486;28;20438;-65
2021/11/21 00:17:56;;;;;;;15.75;11.07;;;;;;;;;;4972319;28;20105;-66
2021/11/21 00:20:23;;;;;;;16.52;10.98;;;;;;;;;;4974944;28;20043;-65
2021/11/21 00:22:49;;;;;;;17.02;11.80;;;;;;;;;;4975447;28;20502;-66
2021/11/21 00:25:20;;;;;;;15.50;10.80;;;;;;;;;;4975795;28;20050;-65
2021/11/21 00:27:47;;;;;;;17.63;11.55;;;;;;;;;;4975730;28;20065;-66
2021/11/21 00:30:14;;;;;;;15.55;11.73;;;;;;;;;;4975531;28;20051;-66
2021/11/21 00:32:40;;;;;;;16.20;11.50;;;;;;;;;;4975570;28;20047;-66
2021/11/21 00:35:07;;;;;;;16.30;12.15;;;;;;;;;;4975456;28;20490;-66
2021/11/21 00:37:34;;;;;;;16.65;11.55;;;;;;;;;;4975792;28;20561;-66
2021/11/21 00:40:01;;;;;;;16.40;11.40;;;;;;;;;;4975348;28;20557;-66
2021/11/21 00:42:28;;;;;;;17.75;11.18;;;;;;;;;;4975152;28;20113;-66
2021/11/21 00:44:54;;;;;;;16.85;11.30;;;;;;;;;;4975341;28;20055;-66
2021/11/21 00:47:21;;;;;;;16.08;10.73;;;;;;;;;;4975485;28;20051;-66
2021/11/21 00:49:47;;;;;;;17.40;12.25;;;;;;;;;;4975276;28;20403;-66
2021/11/21 00:52:14;;;;;;;18.10;12.75;;;;;;;;;;4974889;28;20105;-66
2021/11/21 00:54:56;;;;;;;18.42;12.27;;;;;;;;;;4975397;28;20051;-66
2021/11/21 00:57:23;;;;;;;17.30;11.63;;;;;;;;;;4975324;28;20109;-66
2021/11/21 00:59:50;;;;;;;16.75;11.68;;;;;;;;;;4975126;28;20093;-66
2021/11/21 01:02:16;;;;;;;20.13;13.02;;;;;;;;;;4974876;28;20050;-66
2021/11/21 01:04:43;;;;;;;21.65;13.18;;;;;;;;;;4975204;28;20059;-66
2021/11/21 01:07:11;;;;;;;18.02;11.82;;;;;;;;;;4975145;28;20055;-66
2021/11/21 01:09:38;;;;;;;19.38;12.82;;;;;;;;;;4974954;28;20051;-66
2021/11/21 01:12:05;;;;;;;22.13;13.43;;;;;;;;;;4974634;28;20489;-66
2021/11/21 01:14:32;;;;;;;23.55;13.60;;;;;;;;;;4957773;28;20086;-66
2021/11/21 01:16:59;;;;;;;19.77;12.57;;;;;;;;;;4974852;28;20054;-66
2021/11/21 01:19:25;;;;;;;17.67;11.75;;;;;;;;;;4974793;28;20047;-66
2021/11/21 01:21:52;;;;;;;17.92;12.02;;;;;;;;;;4974498;28;20051;-66
2021/11/21 01:24:19;;;;;;;18.85;12.10;;;;;;;;;;4974499;28;20054;-66
2021/11/21 01:26:45;;;;;;;19.30;12.77;;;;;;;;;;4974894;28;20105;-66
2021/11/21 01:29:12;;;;;;;17.25;12.07;;;;;;;;;;4974467;28;20498;-66
2021/11/21 01:31:41;;;;;;;18.10;12.50;;;;;;;;;;4974427;28;20051;-66
2021/11/21 01:34:08;;;;;;;17.42;12.38;;;;;;;;;;4974512;28;20058;-66
2021/11/21 01:36:35;;;;;;;17.00;12.63;;;;;;;;;;4974571;28;20129;-66
2021/11/21 01:39:02;;;;;;;17.70;12.18;;;;;;;;;;4974458;28;20054;-66
2021/11/21 01:41:29;;;;;;;18.48;12.13;;;;;;;;;;4974209;28;20058;-66
2021/11/21 01:43:56;;;;;;;19.13;12.80;;;;;;;;;;4974251;28;20059;-66
2021/11/21 01:46:37;;;;;;;16.02;11.57;;;;;;;;;;4974388;28;20088;-66
2021/11/21 01:49:05;;;;;;;18.73;12.82;;;;;;;;;;4974173;28;20121;-66
2021/11/21 01:51:32;;;;;;;19.30;12.45;;;;;;;;;;4973949;28;20125;-66
2021/11/21 01:53:58;;;;;;;17.70;11.63;;;;;;;;;;4974065;28;20592;-66
2021/11/21 01:56:26;;;;;;;16.77;12.05;;;;;;;;;;4974073;28;20055;-66
2021/11/21 01:58:56;;;;;;;18.10;12.15;;;;;;;;;;4973974;28;20098;-66
2021/11/21 02:01:23;;;;;;;18.55;12.30;;;;;;;;;;4973595;28;20054;-66
2021/11/21 02:03:50;;;;;;;18.05;12.38;;;;;;;;;;4973944;28;20050;-66
2021/11/21 02:06:17;;;;;;;17.35;12.43;;;;;;;;;;4973481;28;20054;-66
2021/11/21 02:08:43;;;;;;;17.52;12.00;;;;;;;;;;4973787;28;20435;-66
2021/11/21 02:11:10;;;;;;;16.75;10.95;;;;;;;;;;4973415;28;20050;-66
2021/11/21 02:13:37;;;;;;;22.05;14.10;;;;;;;;;;4973663;28;20057;-66
2021/11/21 02:16:04;;;;;;;19.77;13.18;;;;;;;;;;4972327;28;20105;-66
2021/11/21 02:18:30;;;;;;;19.80;12.52;;;;;;;;;;4973516;28;20055;-66
2021/11/21 02:20:57;;;;;;;18.75;12.27;;;;;;;;;;4972922;28;20454;-66
2021/11/21 02:23:24;;;;;;;18.90;12.45;;;;;;;;;;4973401;28;20077;-66
2021/11/21 02:25:51;;;;;;;20.08;12.35;;;;;;;;;;4973313;28;20094;-66
2021/11/21 02:28:18;;;;;;;17.80;11.70;;;;;;;;;;4965285;28;20097;-66
2021/11/21 02:30:45;;;;;;;17.73;11.90;;;;;;;;;;4956392;28;20492;-66
2021/11/21 02:33:15;;;;;;;17.00;11.23;;;;;;;;;;4954042;29;20118;-66
2021/11/21 02:35:43;;;;;;;16.85;11.50;;;;;;;;;;4954131;28;20047;-66
2021/11/21 02:38:11;;;;;;;18.80;12.13;;;;;;;;;;4954084;29;20470;-66
2021/11/21 02:40:38;;;;;;;17.90;12.18;;;;;;;;;;4954069;29;20059;-66
2021/11/21 02:43:05;;;;;;;16.15;10.77;;;;;;;;;;4959786;28;20399;-66
2021/11/21 02:45:32;;;;;;;16.08;11.32;;;;;;;;;;4973210;28;20051;-66
2021/11/21 02:47:58;;;;;;;18.40;12.18;;;;;;;;;;4973345;28;20481;-66
2021/11/21 02:50:25;;;;;;;17.90;11.38;;;;;;;;;;4979886;28;20046;-66
2021/11/21 02:52:53;;;;;;;16.33;11.82;;;;;;;;;;4992513;28;20109;-66
2021/11/21 02:55:22;;;;;;;18.73;12.25;;;;;;;;;;4992222;28;20416;-66
2021/11/21 02:57:48;;;;;;;18.23;11.20;;;;;;;;;;4959626;28;20050;-66
2021/11/21 03:00:16;;;;;;;20.17;12.98;;;;;;;;;;4992565;28;20046;-66
2021/11/21 03:02:45;;;;;;;21.13;12.88;;;;;;;;;;4953673;29;20047;-66
2021/11/21 03:05:13;;;;;;;20.63;11.93;;;;;;;;;;4953642;29;20062;-66
2021/11/21 03:07:40;;;;;;;15.02;10.73;;;;;;;;;;4953771;29;20051;-66
2021/11/21 03:10:07;;;;;;;15.38;10.65;;;;;;;;;;4953524;29;20043;-66
2021/11/21 03:12:34;;;;;;;15.80;11.10;;;;;;;;;;4953541;29;20059;-66
2021/11/21 03:15:01;;;;;;;17.55;11.43;;;;;;;;;;4953624;29;20055;-66
2021/11/21 03:17:27;;;;;;;16.00;10.45;;;;;;;;;;4953422;29;20055;-66
2021/11/21 03:19:54;;;;;;;15.35;10.63;;;;;;;;;;4953443;29;20495;-66
2021/11/21 03:22:21;;;;;;;17.95;10.93;;;;;;;;;;4953217;29;20051;-66
2021/11/21 03:24:47;;;;;;;16.85;11.25;;;;;;;;;;4953515;29;20119;-66
2021/11/21 03:27:14;;;;;;;17.23;11.05;;;;;;;;;;4953405;29;20055;-66
2021/11/21 03:29:41;;;;;;;14.85;10.10;;;;;;;;;;4953415;29;20488;-66
2021/11/21 03:32:08;;;;;;;17.60;11.82;;;;;;;;;;4953275;29;20047;-66
2021/11/21 03:34:37;;;;;;;15.65;11.07;;;;;;;;;;4953213;29;20419;-66
2021/11/21 03:37:06;;;;;;;18.05;11.75;;;;;;;;;;4953405;29;20103;-65
2021/11/21 03:39:33;;;;;;;16.13;11.10;;;;;;;;;;4953409;29;20110;-66
2021/11/21 03:41:59;;;;;;;17.02;11.90;;;;;;;;;;4948458;28;20055;-66
2021/11/21 03:44:27;;;;;;;15.73;10.70;;;;;;;;;;4972462;28;20134;-66
2021/11/21 03:46:53;;;;;;;19.70;12.00;;;;;;;;;;4972609;28;20086;-66
2021/11/21 03:49:20;;;;;;;18.02;11.90;;;;;;;;;;4972488;28;20093;-66
2021/11/21 03:51:47;;;;;;;17.35;11.82;;;;;;;;;;4972433;28;20466;-66
2021/11/21 03:54:13;;;;;;;16.88;11.63;;;;;;;;;;4973701;28;20109;-66
2021/11/21 03:56:40;;;;;;;21.42;13.82;;;;;;;;;;4976358;28;20054;-66
2021/11/21 03:59:07;;;;;;;18.45;12.60;;;;;;;;;;4976378;28;20101;-66
2021/11/21 04:01:34;;;;;;;18.90;12.60;;;;;;;;;;4976476;28;20105;-66
2021/11/21 04:04:05;;;;;;;20.63;12.98;;;;;;;;;;4976146;28;20055;-66
2021/11/21 04:06:33;;;;;;;20.30;13.18;;;;;;;;;;4976060;28;20506;-66
2021/11/21 04:08:59;;;;;;;18.27;11.93;;;;;;;;;;4975943;28;20055;-65
2021/11/21 04:11:26;;;;;;;22.35;14.80;;;;;;;;;;4975489;28;20097;-66
2021/11/21 04:13:53;;;;;;;22.60;15.15;;;;;;;;;;4976161;28;20050;-66
2021/11/21 04:16:20;;;;;;;23.20;15.07;;;;;;;;;;4976061;28;20106;-65
2021/11/21 04:18:46;;;;;;;22.42;13.65;;;;;;;;;;4975805;28;20576;-65
2021/11/21 04:21:13;;;;;;;21.48;13.43;;;;;;;;;;4975563;28;20047;-65
2021/11/21 04:23:40;;;;;;;24.42;14.35;;;;;;;;;;4975816;28;20055;-65
2021/11/21 04:26:07;;;;;;;20.75;14.32;;;;;;;;;;4975727;28;20113;-65
2021/11/21 04:28:33;;;;;;;17.70;11.70;;;;;;;;;;4975872;28;20058;-65
2021/11/21 04:31:00;;;;;;;17.00;11.60;;;;;;;;;;4975308;28;20054;-65
2021/11/21 04:33:26;;;;;;;19.75;12.95;;;;;;;;;;4974895;28;20069;-65
2021/11/21 04:35:53;;;;;;;20.10;11.88;;;;;;;;;;4975613;28;20474;-65
2021/11/21 04:38:21;;;;;;;20.45;12.30;;;;;;;;;;4975316;28;20102;-65
2021/11/21 04:40:50;;;;;;;19.60;11.95;;;;;;;;;;4975363;28;20125;-65
2021/11/21 04:43:17;;;;;;;18.63;13.60;;;;;;;;;;4975152;28;20051;-65
2021/11/21 04:45:44;;;;;;;19.30;12.73;;;;;;;;;;4975496;28;20051;-65
2021/11/21 04:48:11;;;;;;;20.52;13.05;;;;;;;;;;4975166;28;20050;-65
2021/11/21 04:50:37;;;;;;;21.88;12.88;;;;;;;;;;4975035;28;20051;-65
2021/11/21 04:53:05;;;;;;;16.70;12.13;;;;;;;;;;4975135;28;20113;-65
2021/11/21 04:55:32;;;;;;;17.65;12.45;;;;;;;;;;4975228;28;20106;-65
2021/11/21 04:57:59;;;;;;;17.40;11.65;;;;;;;;;;4975204;28;20046;-65
2021/11/21 05:00:26;;;;;;;16.58;11.10;;;;;;;;;;4974621;28;20129;-65
2021/11/21 05:02:52;;;;;;;20.10;12.75;;;;;;;;;;4974880;28;20526;-65
2021/11/21 05:05:21;;;;;;;19.17;11.88;;;;;;;;;;4974511;28;20051;-65
2021/11/21 05:07:48;;;;;;;17.13;11.10;;;;;;;;;;4975089;28;20054;-65
2021/11/21 05:10:14;;;;;;;17.50;11.20;;;;;;;;;;4974737;28;20462;-65
2021/11/21 05:12:42;;;;;;;18.98;12.38;;;;;;;;;;4974602;28;20050;-66
2021/11/21 05:15:10;;;;;;;17.58;11.25;;;;;;;;;;4974829;28;20055;-65
2021/11/21 05:17:37;;;;;;;17.55;11.38;;;;;;;;;;4974722;28;20105;-65
2021/11/21 05:20:05;;;;;;;17.30;11.27;;;;;;;;;;4973589;28;20059;-67
2021/11/21 05:22:32;;;;;;;18.60;11.27;;;;;;;;;;4974554;28;20395;-67
2021/11/21 05:24:58;;;;;;;18.02;11.13;;;;;;;;;;4974673;28;20050;-67
2021/11/21 05:27:25;;;;;;;17.90;11.57;;;;;;;;;;4974566;28;20411;-67
2021/11/21 05:29:52;;;;;;;15.32;10.25;;;;;;;;;;4974518;28;20502;-68
2021/11/21 05:32:20;;;;;;;14.93;10.27;;;;;;;;;;4974021;28;20109;-67
2021/11/21 05:34:46;;;;;;;16.02;10.52;;;;;;;;;;4974412;28;20054;-67
2021/11/21 05:37:13;;;;;;;17.48;11.48;;;;;;;;;;4974415;28;20102;-67
2021/11/21 05:39:40;;;;;;;15.10;10.15;;;;;;;;;;4974298;28;20043;-67
2021/11/21 05:42:06;;;;;;;17.77;10.85;;;;;;;;;;4974140;28;20059;-68
2021/11/21 05:44:33;;;;;;;16.63;11.45;;;;;;;;;;4974321;28;20090;-67
2021/11/21 05:47:00;;;;;;;15.52;10.13;;;;;;;;;;4973837;28;20062;-67
2021/11/21 05:49:26;;;;;;;17.35;11.15;;;;;;;;;;4974042;28;20055;-67
2021/11/21 05:51:53;;;;;;;16.33;10.02;;;;;;;;;;4973865;28;20474;-67
2021/11/21 05:54:19;;;;;;;19.10;10.18;;;;;;;;;;4973649;28;20055;-67
2021/11/21 05:56:46;;;;;;;18.90;11.45;;;;;;;;;;4974208;28;20410;-68
2021/11/21 05:59:13;;;;;;;16.23;9.90;;;;;;;;;;4973921;28;20050;-67
2021/11/21 06:01:39;;;;;;;15.13;9.55;;;;;;;;;;4973621;28;20510;-67
2021/11/21 06:04:06;;;;;;;15.48;9.93;;;;;;;;;;4973519;28;20142;-67
2021/11/21 06:06:33;;;;;;;13.73;9.90;;;;;;;;;;4973846;28;20399;-67
2021/11/21 06:09:00;;;;;;;14.27;10.32;;;;;;;;;;4973841;28;20403;-67
2021/11/21 06:11:26;;;;;;;13.65;9.52;;;;;;;;;;4973422;28;20047;-67
2021/11/21 06:13:53;;;;;;;14.98;9.63;;;;;;;;;;4973611;28;20051;-67
2021/11/21 06:16:20;;;;;;;14.90;9.40;;;;;;;;;;4972950;28;20055;-68
2021/11/21 06:18:47;;;;;;;11.88;9.63;;;;;;;;;;4973674;28;20498;-67
2021/11/21 06:21:14;;;;;;;15.10;10.38;;;;;;;;;;4973251;28;20387;-67
2021/11/21 06:23:41;;;;;;;12.02;8.43;;;;;;;;;;4973710;28;20051;-67
2021/11/21 06:26:07;;;;;;;15.55;10.93;;;;;;;;;;4956091;28;20086;-67
2021/11/21 06:28:34;;;;;;;15.20;10.05;;;;;;;;;;4973541;28;20058;-67
2021/11/21 06:31:00;;;;;;;13.35;9.82;;;;;;;;;;4973208;28;20098;-67
2021/11/21 06:33:27;;;;;;;12.98;9.15;;;;;;;;;;4973355;28;20113;-68
2021/11/21 06:35:54;;;;;;;12.30;9.23;;;;;;;;;;4973322;28;20078;-67
2021/11/21 06:38:21;;;;;;;14.93;10.25;;;;;;;;;;4973193;28;20105;-67
2021/11/21 06:40:47;;;;;;;12.43;8.77;;;;;;;;;;4956126;28;20098;-68
2021/11/21 06:43:14;;;;;;;12.15;8.40;;;;;;;;;;4973051;28;20082;-67
2021/11/21 06:45:41;;;;;;;13.00;9.35;;;;;;;;;;4973153;28;20072;-67
2021/11/21 06:48:11;;;;;;;13.90;9.55;;;;;;;;;;4973223;28;20469;-67
2021/11/21 06:50:38;;;;;;;13.07;9.52;;;;;;;;;;4973291;28;20514;-67
2021/11/21 06:53:05;;;;;;;12.45;9.45;;;;;;;;;;4973064;28;20308;-67
2021/11/21 06:55:32;;;;;;;13.55;10.13;;;;;;;;;;4972960;28;20651;-68
2021/11/21 06:57:59;;;;;;;13.90;9.68;;;;;;;;;;4973094;28;20498;-67
2021/11/21 07:00:25;;;;;;;13.60;9.45;;;;;;;;;;4972690;28;20055;-67
2021/11/21 07:02:52;;;;;;;14.38;9.68;;;;;;;;;;4972836;28;20105;-67
2021/11/21 07:05:19;;;;;;;14.88;9.52;;;;;;;;;;4972777;28;20050;-67
2021/11/21 07:07:46;;;;;;;14.45;9.52;;;;;;;;;;4973289;28;20054;-67
2021/11/21 07:10:12;;;;;;;13.70;9.57;;;;;;;;;;4972725;28;20055;-67
2021/11/21 07:12:39;;;;;;;13.65;8.80;;;;;;;;;;4972910;28;20143;-67
2021/11/21 07:15:15;;;;;;;14.65;10.23;;;;;;;;;;4972730;28;20050;-66
2021/11/21 07:17:42;;;;;;;15.40;9.18;;;;;;;;;;4972997;28;20055;-66
2021/11/21 07:20:15;;;;;;;14.70;10.27;;;;;;;;;;4972589;28;20046;-66
2021/11/21 07:22:46;;;;;;;14.98;10.00;;;;;;;;;;4972552;28;20110;-66
2021/11/21 07:25:14;;;;;;;18.45;10.63;;;;;;;;;;4972560;28;20125;-66
2021/11/21 07:27:44;;;;;;;16.73;11.20;;;;;;;;;;4955873;28;20117;-66
2021/11/21 07:30:12;;;;;;;14.88;9.95;;;;;;;;;;4976574;28;20051;-66
2021/11/21 07:32:38;;;;;;;15.65;10.55;;;;;;;;;;4976657;28;20395;-66
2021/11/21 07:35:05;;;;;;;15.73;9.98;;;;;;;;;;4976678;28;20573;-66
2021/11/21 07:37:32;;;;;;;16.98;11.30;;;;;;;;;;4976369;28;20054;-66
2021/11/21 07:39:59;;;;;;;18.75;10.23;;;;;;;;;;4976532;28;20499;-66
2021/11/21 07:42:25;;;;;;;19.05;10.55;;;;;;;;;;4976113;28;20054;-66
2021/11/21 07:44:53;;;;;;;17.27;10.10;;;;;;;;;;4976623;28;20051;-66
2021/11/21 07:47:21;;;;;;;14.27;9.25;;;;;;;;;;4976441;28;20051;-66
2021/11/21 07:49:47;;;;;;;15.43;9.95;;;;;;;;;;4976364;28;20055;-66
2021/11/21 07:52:14;;;;;;;17.73;11.00;;;;;;;;;;4976267;28;20051;-66
2021/11/21 07:54:43;;;;;;;19.45;11.18;;;;;;;;;;4976359;28;20055;-66
2021/11/21 07:57:10;;;;;;;20.95;12.30;;;;;;;;;;4976234;28;20054;-66
2021/11/21 07:59:37;;;;;;;18.95;11.07;;;;;;;;;;4976212;28;20051;-66
2021/11/21 08:02:03;;;;;;;19.05;11.55;;;;;;;;;;4975732;28;20101;-66
2021/11/21 08:04:31;;;;;;;17.63;10.98;;;;;;;;;;4975999;28;20146;-66
2021/11/21 08:06:57;;;;;;;16.35;10.52;;;;;;;;;;4976222;28;20051;-66
2021/11/21 08:09:24;;;;;;;18.55;10.70;;;;;;;;;;4976247;28;20183;-66
2021/11/21 08:11:51;;;;;;;17.33;10.30;;;;;;;;;;4975740;28;20047;-66
2021/11/21 08:14:17;;;;;;;20.25;11.82;;;;;;;;;;4975790;28;20051;-66
2021/11/21 08:16:44;;;;;;;22.75;13.32;;;;;;;;;;4976021;28;20054;-66
2021/11/21 08:19:11;;;;;;;23.52;12.80;;;;;;;;;;4975995;28;20102;-66
2021/11/21 08:21:38;;;;;;;29.80;14.75;;;;;;;;;;4975523;28;20109;-66
2021/11/21 08:24:07;;;;;;;28.30;13.98;;;;;;;;;;4975557;28;20061;-66
2021/11/21 08:26:37;;;;;;;31.45;15.55;;;;;;;;;;4975806;28;20068;-66
2021/11/21 08:29:04;;;;;;;30.63;16.42;;;;;;;;;;4975633;28;20094;-66
2021/11/21 08:31:52;;;;;;;33.15;17.00;;;;;;;;;;4975234;28;20054;-66
2021/11/21 08:34:19;;;;;;;33.58;17.30;;;;;;;;;;4975667;28;20502;-66
2021/11/21 08:36:46;;;;;;;31.33;15.70;;;;;;;;;;4975541;28;20113;-66
2021/11/21 08:39:12;;;;;;;31.67;17.60;;;;;;;;;;4974986;28;20051;-66
2021/11/21 08:41:39;;;;;;;32.00;16.02;;;;;;;;;;4974942;28;20106;-66
2021/11/21 08:44:05;;;;;;;35.88;17.65;;;;;;;;;;4975246;28;20660;-67
2021/11/21 08:46:33;;;;;;;31.55;15.50;;;;;;;;;;4975293;28;20543;-66
2021/11/21 08:49:00;;;;;;;30.77;15.82;;;;;;;;;;4975068;28;20078;-66
2021/11/21 08:51:26;;;;;;;28.67;14.05;;;;;;;;;;4974937;28;20051;-66
2021/11/21 08:53:53;;;;;;;27.30;14.48;;;;;;;;;;4974566;28;20113;-67
2021/11/21 08:56:20;;;;;;;33.30;15.70;;;;;;;;;;4973595;28;20050;-67
2021/11/21 08:58:48;;;;;;;26.67;13.88;;;;;;;;;;4958007;28;20502;-67
2021/11/21 09:01:15;;;;;;;20.35;12.00;;;;;;;;;;4973159;28;20055;-67
2021/11/21 09:03:41;;;;;;;19.65;11.57;;;;;;;;;;4973310;28;20054;-67
2021/11/21 09:06:08;;;;;;;20.25;12.55;;;;;;;;;;4973220;28;20059;-67
2021/11/21 09:08:35;;;;;;;21.55;12.02;;;;;;;;;;4973135;28;20054;-67
2021/11/21 09:11:02;;;;;;;20.10;11.25;;;;;;;;;;4972562;28;20059;-67
2021/11/21 09:13:28;;;;;;;20.05;10.80;;;;;;;;;;4973066;28;20090;-67
2021/11/21 09:15:55;;;;;;;19.42;10.48;;;;;;;;;;4973270;28;20058;-67
2021/11/21 09:18:24;;;;;;;21.00;11.93;;;;;;;;;;4972961;28;20101;-67
2021/11/21 09:20:53;;;;;;;23.83;12.60;;;;;;;;;;4972896;28;20051;-66
2021/11/21 09:23:20;;;;;;;18.83;11.57;;;;;;;;;;4971643;28;20125;-66
2021/11/21 09:25:46;;;;;;;19.80;12.30;;;;;;;;;;4971477;28;20106;-66
2021/11/21 09:28:13;;;;;;;21.42;11.40;;;;;;;;;;4972193;28;20082;-66
2021/11/21 09:30:40;;;;;;;17.45;9.32;;;;;;;;;;4955007;28;20051;-66
2021/11/21 09:33:09;;;;;;;18.90;11.05;;;;;;;;;;4971939;28;20523;-66
2021/11/21 09:35:36;;;;;;;19.17;10.10;;;;;;;;;;4971658;28;20506;-66
2021/11/21 09:38:03;;;;;;;20.98;10.80;;;;;;;;;;4968094;28;20055;-68
2021/11/21 09:40:30;;;;;;;18.60;10.98;;;;;;;;;;4992192;28;20397;-70
2021/11/21 09:42:57;;;;;;;25.13;12.80;;;;;;;;;;4981849;28;20058;-69
2021/11/21 09:45:23;;;;;;;25.10;12.52;;;;;;;;;;4939998;28;20054;-65
2021/11/21 09:47:52;;;;;;;20.10;11.57;;;;;;;;;;4973721;28;20054;-70
2021/11/21 09:50:20;;;;;;;21.33;11.73;;;;;;;;;;4974005;28;20059;-70
2021/11/21 09:52:47;;;;;;;23.08;11.32;;;;;;;;;;4973849;28;20051;-70
2021/11/21 09:55:14;;;;;;;21.70;11.88;;;;;;;;;;4973533;28;20106;-69
2021/11/21 09:57:41;;;;;;;22.63;11.77;;;;;;;;;;4970618;28;20494;-70
2021/11/21 10:00:13;;;;;;;24.38;11.75;;;;;;;;;;4990024;23;20093;-68
2021/11/21 10:02:40;;;;;;;23.38;12.00;;;;;;;;;;4952858;28;20107;-69
2021/11/21 10:05:09;;;;;;;22.25;11.23;;;;;;;;;;4953012;28;20454;-70
2021/11/21 10:07:36;;;;;;;26.38;12.45;;;;;;;;;;4953029;28;20059;-69
2021/11/21 10:10:05;;;;;;;21.27;10.50;;;;;;;;;;4952482;28;20154;-71
2021/11/21 10:12:35;;;;;;;24.48;11.57;;;;;;;;;;4952360;29;20090;-69
2021/11/21 10:15:15;;;;;;;25.88;11.60;;;;;;;;;;4953018;29;20498;-71
2021/11/21 10:17:47;;;;;;;21.20;12.25;;;;;;;;;;4952701;28;20564;-68
2021/11/21 10:20:24;;;;;;;21.92;12.27;;;;;;;;;;4952648;28;20054;-69
2021/11/21 10:23:04;;;;;;;21.90;10.98;;;;;;;;;;4953339;29;20051;-69
2021/11/21 10:25:33;;;;;;;19.75;10.88;;;;;;;;;;4953159;28;20047;-71
2021/11/21 10:28:43;;;;;;;23.00;14.07;;;;;;;;;;4953103;29;20087;-72
2021/11/21 10:31:14;;;;;;;22.48;10.57;;;;;;;;;;4891597;29;20124;-71
2021/11/21 10:33:53;;;;;;;29.45;11.55;;;;;;;;;;4897304;29;20052;-72
2021/11/21 10:36:26;;;;;;;24.15;13.07;;;;;;;;;;4930598;28;20122;-72
2021/11/21 10:38:55;;;;;;;24.10;11.95;;;;;;;;;;4957301;28;20071;-71
2021/11/21 10:41:26;;;;;;;19.10;10.23;;;;;;;;;;4938572;29;20094;-71
2021/11/21 10:43:55;;;;;;;21.48;10.48;;;;;;;;;;4959171;29;20043;-70
2021/11/21 10:46:29;;;;;;;21.85;11.18;;;;;;;;;;4956168;29;20098;-70
2021/11/21 10:49:24;;;;;;;16.42;9.75;;;;;;;;;;4955347;29;20051;-71
2021/11/21 10:52:12;;;;;;;17.50;9.70;;;;;;;;;;4952599;28;20043;-70
2021/11/21 10:54:57;;;;;;;24.40;13.65;;;;;;;;;;4945766;28;20047;-71
2021/11/21 10:57:26;;;;;;;20.27;11.48;;;;;;;;;;4952286;28;20106;-71
2021/11/21 11:00:01;;;;;;;19.25;9.38;;;;;;;;;;4953569;29;20569;-69
2021/11/21 11:02:28;;;;;;;12.48;7.68;;;;;;;;;;4953142;28;20076;-67
2021/11/21 11:05:21;;;;;;;16.10;7.93;;;;;;;;;;4951979;28;20148;-65
2021/11/21 11:07:47;;;;;;;16.80;9.02;;;;;;;;;;4951846;28;20425;-69
2021/11/21 11:10:18;;;;;;;14.50;8.18;;;;;;;;;;4951746;28;20458;-67
2021/11/21 11:12:47;;;;;;;14.45;7.72;;;;;;;;;;4951548;29;20043;-67
2021/11/21 11:15:14;;;;;;;12.98;7.85;;;;;;;;;;4951846;29;20086;-67
2021/11/21 11:17:41;;;;;;;15.88;7.53;;;;;;;;;;4951806;29;20047;-67
2021/11/21 11:20:11;;;;;;;12.88;6.72;;;;;;;;;;4948674;28;20055;-67
2021/11/21 11:22:40;;;;;;;16.20;7.60;;;;;;;;;;4951923;29;20102;-66
2021/11/21 11:25:26;;;;;;;14.73;7.53;;;;;;;;;;4948718;28;20047;-69
2021/11/21 11:28:05;;;;;;;11.65;7.47;;;;;;;;;;4952236;29;20051;-72
2021/11/21 11:30:34;;;;;;;15.30;7.93;;;;;;;;;;4934281;29;20055;-68
2021/11/21 11:33:14;;;;;;;20.60;7.40;;;;;;;;;;4950753;28;20569;-67
2021/11/21 11:35:45;;;;;;;13.80;6.82;;;;;;;;;;4952059;28;20051;-71
2021/11/21 11:38:19;;;;;;;11.75;6.07;;;;;;;;;;4951269;29;21082;-70
2021/11/21 11:40:55;;;;;;;13.15;6.63;;;;;;;;;;4934679;29;20125;-68
2021/11/21 11:43:29;;;;;;;14.32;7.45;;;;;;;;;;4951635;29;20047;-70
2021/11/21 11:46:08;;;;;;;15.48;6.90;;;;;;;;;;4951618;28;20055;-70
2021/11/21 11:49:15;;;;;;;15.15;7.13;;;;;;;;;;4951174;29;20098;-69
2021/11/21 11:51:42;;;;;;;14.73;7.22;;;;;;;;;;4950392;28;20439;-70
2021/11/21 11:54:11;;;;;;;11.43;6.18;;;;;;;;;;4953150;28;20102;-68
2021/11/21 11:56:50;;;;;;;13.20;7.03;;;;;;;;;;4951638;28;20051;-71
2021/11/21 11:59:25;;;;;;;14.27;7.43;;;;;;;;;;4951140;29;20055;-68
2021/11/21 12:02:00;;;;;;;13.70;7.65;;;;;;;;;;4950106;28;20548;-70
2021/11/21 12:04:27;;;;;;;13.05;6.70;;;;;;;;;;4951704;28;21026;-70
2021/11/21 12:06:55;;;;;;;9.80;6.68;;;;;;;;;;4951492;28;20051;-68
2021/11/21 12:09:25;;;;;;;13.00;7.03;;;;;;;;;;4951532;29;20146;-69
2021/11/21 12:12:10;;;;;;;12.23;7.45;;;;;;;;;;4950614;28;20051;-69
2021/11/21 12:14:39;;;;;;;14.55;8.82;;;;;;;;;;4951830;28;20105;-70
2021/11/21 12:17:17;;;;;;;13.35;9.05;;;;;;;;;;4955093;29;20502;-67
2021/11/21 12:19:55;;;;;;;14.32;8.32;;;;;;;;;;4954770;29;20055;-68
2021/11/21 12:22:22;;;;;;;9.07;6.05;;;;;;;;;;4955038;29;20553;-67
2021/11/21 12:24:49;;;;;;;12.63;7.80;;;;;;;;;;4955140;29;20051;-69
2021/11/21 12:27:18;;;;;;;8.25;5.07;;;;;;;;;;4937554;29;20102;-69
2021/11/21 12:29:45;;;;;;;14.18;6.85;;;;;;;;;;4931891;29;20055;-68
2021/11/21 12:32:20;;;;;;;12.00;6.40;;;;;;;;;;4937064;29;20047;-67
2021/11/21 12:34:49;;;;;;;11.40;6.45;;;;;;;;;;4943899;29;20055;-68
2021/11/21 12:37:26;;;;;;;9.38;6.13;;;;;;;;;;4953965;29;20094;-70
2021/11/21 12:40:08;;;;;;;11.80;6.88;;;;;;;;;;4922435;29;20081;-67
2021/11/21 12:42:36;;;;;;;8.80;6.10;;;;;;;;;;4952933;29;20066;-67
2021/11/21 12:45:14;;;;;;;8.30;5.28;;;;;;;;;;4952954;29;20055;-67
2021/11/21 12:47:42;;;;;;;7.25;4.88;;;;;;;;;;4952296;29;20051;-67
2021/11/21 12:50:24;;;;;;;6.88;4.78;;;;;;;;;;4952460;28;20801;-65
2021/11/21 12:52:55;;;;;;;6.60;5.05;;;;;;;;;;4951630;28;20102;-67
2021/11/21 12:55:23;;;;;;;6.07;4.05;;;;;;;;;;4951825;28;20083;-67
2021/11/21 12:57:53;;;;;;;6.60;4.72;;;;;;;;;;4952165;29;20106;-67
2021/11/21 13:00:25;;;;;;;7.65;5.45;;;;;;;;;;4951684;28;20565;-68
2021/11/21 13:03:02;;;;;;;6.68;4.30;;;;;;;;;;4949114;28;20498;-67
2021/11/21 13:05:32;;;;;;;6.30;4.63;;;;;;;;;;4950620;28;20047;-68
2021/11/21 13:07:59;;;;;;;7.78;5.00;;;;;;;;;;4951867;29;20098;-68
2021/11/21 13:10:25;;;;;;;8.80;5.60;;;;;;;;;;4951119;28;20532;-67
2021/11/21 13:12:57;;;;;;;11.55;6.07;;;;;;;;;;4951856;29;20051;-68
2021/11/21 13:15:25;;;;;;;8.80;6.13;;;;;;;;;;4949275;29;20118;-67
2021/11/21 13:18:21;;;;;;;10.93;6.28;;;;;;;;;;4951274;29;20510;-66
2021/11/21 13:20:52;;;;;;;9.43;5.85;;;;;;;;;;4951033;28;20487;-68
2021/11/21 13:23:24;;;;;;;7.38;5.00;;;;;;;;;;4951365;28;20226;-68
2021/11/21 13:25:53;;;;;;;10.25;6.45;;;;;;;;;;4951990;28;20063;-68
2021/11/21 13:28:30;;;;;;;7.25;4.85;;;;;;;;;;4951883;29;20043;-67
2021/11/21 13:31:06;;;;;;;7.97;5.85;;;;;;;;;;4952052;28;20059;-67
2021/11/21 13:33:41;;;;;;;8.95;6.38;;;;;;;;;;4950394;28;20047;-66
2021/11/21 13:36:15;;;;;;;8.07;5.70;;;;;;;;;;4951404;28;20110;-67
2021/11/21 13:38:42;;;;;;;7.07;5.13;;;;;;;;;;4925243;29;20107;-67
2021/11/21 13:41:11;;;;;;;7.93;5.90;;;;;;;;;;4951500;28;20055;-66
2021/11/21 13:43:46;;;;;;;7.93;5.03;;;;;;;;;;4951881;29;20391;-68
2021/11/21 13:46:30;;;;;;;7.82;5.53;;;;;;;;;;4952012;29;20055;-67
2021/11/21 13:48:59;;;;;;;10.52;6.22;;;;;;;;;;4948964;29;20518;-67
2021/11/21 13:51:31;;;;;;;7.68;5.50;;;;;;;;;;4951131;28;20114;-66
2021/11/21 13:54:01;;;;;;;9.32;5.80;;;;;;;;;;4952523;28;20059;-67
2021/11/21 13:56:28;;;;;;;8.70;5.75;;;;;;;;;;4951148;28;20102;-67
2021/11/21 13:59:15;;;;;;;9.55;5.47;;;;;;;;;;4951010;29;20509;-65
2021/11/21 14:01:47;;;;;;;10.77;6.97;;;;;;;;;;4933643;29;20055;-67
2021/11/21 14:04:14;;;;;;;8.98;6.30;;;;;;;;;;4951000;28;20050;-68
2021/11/21 14:06:41;;;;;;;9.20;5.43;;;;;;;;;;4951263;29;20471;-67
2021/11/21 14:09:09;;;;;;;10.30;5.63;;;;;;;;;;4950597;29;20417;-68
2021/11/21 14:11:41;;;;;;;8.98;5.70;;;;;;;;;;4950567;28;20463;-68
2021/11/21 14:14:12;;;;;;;9.95;5.95;;;;;;;;;;4949167;29;20494;-66
2021/11/21 14:16:47;;;;;;;10.13;6.50;;;;;;;;;;4950713;29;20517;-68
2021/11/21 14:19:27;;;;;;;10.90;7.35;;;;;;;;;;4950672;28;20051;-67
2021/11/21 14:22:10;;;;;;;11.00;7.10;;;;;;;;;;4951056;28;20102;-67
2021/11/21 14:24:38;;;;;;;12.55;7.88;;;;;;;;;;4951107;29;20051;-67
2021/11/21 14:27:19;;;;;;;12.45;7.40;;;;;;;;;;4950452;29;20130;-67
2021/11/21 14:30:09;;;;;;;8.95;6.38;;;;;;;;;;4951177;29;20058;-68
2021/11/21 14:32:37;;;;;;;10.77;6.80;;;;;;;;;;4950625;29;20121;-67
2021/11/21 14:35:21;;;;;;;12.05;7.07;;;;;;;;;;4950759;29;20086;-66